createdAt,value
2018-02-24T00:00:40.554Z,16.62
2018-02-24T00:03:09.594Z,18.25
2018-02-24T00:05:37.865Z,19.67
2018-02-24T00:08:09.338Z,18.12
2018-02-24T00:10:37.617Z,18.83
2018-02-24T00:13:05.897Z,16.75
2018-02-24T00:15:34.162Z,15.55
2018-02-24T00:18:02.428Z,16.58
2018-02-24T00:20:30.688Z,16.67
2018-02-24T00:22:58.970Z,17.12
2018-02-24T00:25:27.246Z,17.02
2018-02-24T00:27:55.537Z,17.92
2018-02-24T00:30:23.795Z,15.63
2018-02-24T00:32:52.836Z,18.52
2018-02-24T00:35:21.099Z,19.17
2018-02-24T00:37:50.150Z,18.02
2018-02-24T00:40:18.425Z,20.95
2018-02-24T00:42:46.710Z,19.08
2018-02-24T00:45:14.998Z,18.62
2018-02-24T00:47:43.260Z,18.45
2018-02-24T00:50:12.300Z,21.20
2018-02-24T00:52:40.577Z,16.52
2018-02-24T00:55:08.852Z,18.73
2018-02-24T00:57:37.134Z,20.50
2018-02-24T01:00:06.176Z,21.67
2018-02-24T01:02:34.449Z,18.02
2018-02-24T01:05:02.729Z,19.02
2018-02-24T01:07:31.012Z,18.77
2018-02-24T01:09:59.293Z,18.42
2018-02-24T01:12:28.338Z,19.15
2018-02-24T01:14:56.628Z,19.20
2018-02-24T01:17:24.888Z,19.10
2018-02-24T01:19:54.122Z,19.08
2018-02-24T01:22:22.391Z,19.35
2018-02-24T01:24:50.675Z,19.60
2018-02-24T01:27:18.943Z,17.40
2018-02-24T01:29:47.993Z,18.10
2018-02-24T01:32:16.281Z,18.45
2018-02-24T01:34:44.561Z,18.27
2018-02-24T01:37:12.836Z,18.65
2018-02-24T01:39:41.123Z,20.05
2018-02-24T01:42:09.388Z,18.65
2018-02-24T01:44:38.420Z,17.48
2018-02-24T01:47:06.688Z,18.33
2018-02-24T01:49:35.741Z,18.02
2018-02-24T01:52:04.015Z,18.45
2018-02-24T01:54:32.294Z,19.30
2018-02-24T01:57:00.570Z,17.65
2018-02-24T01:59:28.863Z,17.92
2018-02-24T02:01:57.266Z,18.60
2018-02-24T02:04:25.553Z,19.52
2018-02-24T02:06:53.816Z,18.02
2018-02-24T02:09:22.851Z,18.35
2018-02-24T02:11:51.112Z,18.45
2018-02-24T02:14:20.148Z,17.83
2018-02-24T02:16:48.416Z,19.00
2018-02-24T02:19:16.864Z,18.50
2018-02-24T02:21:45.132Z,18.40
2018-02-24T02:24:13.427Z,16.73
2018-02-24T02:26:41.702Z,15.23
2018-02-24T02:29:09.990Z,15.80
2018-02-24T02:31:38.426Z,16.23
2018-02-24T02:34:06.720Z,17.20
2018-02-24T02:36:34.990Z,14.95
2018-02-24T02:39:03.272Z,16.98
2018-02-24T02:41:31.540Z,14.00
2018-02-24T02:43:59.831Z,13.70
2018-02-24T02:46:28.094Z,14.70
2018-02-24T02:48:56.374Z,15.18
2018-02-24T02:51:24.636Z,14.57
2018-02-24T02:53:53.683Z,13.73
2018-02-24T02:56:21.952Z,14.20
2018-02-24T02:58:50.234Z,13.25
2018-02-24T03:01:26.087Z,12.75
2018-02-24T03:03:55.120Z,13.27
2018-02-24T03:06:23.442Z,12.40
2018-02-24T03:08:51.717Z,11.55
2018-02-24T03:11:19.988Z,10.15
2018-02-24T03:13:48.270Z,13.20
2018-02-24T03:16:16.549Z,9.68
2018-02-24T03:18:45.594Z,9.80
2018-02-24T03:21:15.796Z,11.20
2018-02-24T03:23:44.086Z,11.23
2018-02-24T03:26:12.354Z,9.65
2018-02-24T03:28:41.387Z,12.45
2018-02-24T03:31:09.658Z,11.63
2018-02-24T03:33:38.733Z,12.18
2018-02-24T03:36:07.022Z,11.70
2018-02-24T03:38:36.274Z,11.07
2018-02-24T03:41:04.562Z,9.10
2018-02-24T03:43:32.841Z,10.18
2018-02-24T03:46:07.729Z,11.43
2018-02-24T03:48:36.002Z,10.15
2018-02-24T03:51:04.293Z,10.30
2018-02-24T03:53:32.566Z,10.88
2018-02-24T03:56:00.845Z,9.90
2018-02-24T03:58:29.321Z,10.05
2018-02-24T04:00:58.369Z,10.38
2018-02-24T04:03:27.336Z,9.90
2018-02-24T04:05:56.384Z,10.57
2018-02-24T04:08:24.648Z,8.82
2018-02-24T04:10:52.925Z,10.18
2018-02-24T04:13:21.960Z,10.48
2018-02-24T04:15:50.242Z,10.45
2018-02-24T04:18:18.503Z,10.25
2018-02-24T04:20:47.552Z,10.68
2018-02-24T04:23:15.805Z,9.60
2018-02-24T04:25:44.089Z,11.25
2018-02-24T04:28:13.125Z,10.38
2018-02-24T04:30:42.108Z,9.43
2018-02-24T04:33:11.326Z,10.70
2018-02-24T04:35:39.602Z,10.38
2018-02-24T04:38:07.865Z,12.13
2018-02-24T04:40:36.140Z,10.60
2018-02-24T04:43:04.404Z,9.20
2018-02-24T04:45:32.721Z,9.50
2018-02-24T04:48:00.989Z,9.60
2018-02-24T04:50:29.280Z,9.95
2018-02-24T04:52:57.562Z,9.68
2018-02-24T04:55:25.845Z,9.43
2018-02-24T04:57:54.124Z,8.70
2018-02-24T05:00:22.407Z,9.25
2018-02-24T05:02:50.671Z,9.75
2018-02-24T05:05:19.708Z,9.70
2018-02-24T05:07:47.986Z,8.02
2018-02-24T05:10:16.278Z,9.52
2018-02-24T05:12:44.549Z,9.10
2018-02-24T05:15:12.830Z,8.18
2018-02-24T05:17:41.874Z,6.95
2018-02-24T05:20:10.144Z,8.15
2018-02-24T05:22:38.427Z,9.02
2018-02-24T05:25:06.698Z,7.87
2018-02-24T05:27:35.729Z,8.10
2018-02-24T05:30:04.018Z,7.57
2018-02-24T05:32:32.290Z,8.63
2018-02-24T05:35:01.334Z,7.90
2018-02-24T05:37:29.590Z,8.23
2018-02-24T05:39:57.875Z,8.52
2018-02-24T05:42:26.914Z,9.00
2018-02-24T05:44:55.180Z,8.23
2018-02-24T05:47:23.448Z,7.68
2018-02-24T05:49:52.496Z,7.37
2018-02-24T05:52:32.397Z,6.68
2018-02-24T05:55:00.669Z,8.30
2018-02-24T05:57:28.931Z,6.93
2018-02-24T05:59:57.211Z,6.22
2018-02-24T06:02:26.286Z,6.00
2018-02-24T06:04:55.324Z,4.87
2018-02-24T06:07:23.597Z,4.87
2018-02-24T06:09:51.877Z,5.25
2018-02-24T06:12:20.914Z,4.80
2018-02-24T06:14:49.195Z,4.68
2018-02-24T06:17:17.478Z,5.85
2018-02-24T06:19:45.762Z,4.87
2018-02-24T06:22:14.040Z,5.43
2018-02-24T06:24:42.326Z,4.65
2018-02-24T06:27:11.357Z,4.35
2018-02-24T06:29:39.617Z,5.25
2018-02-24T06:32:08.647Z,3.78
2018-02-24T06:34:36.912Z,4.40
2018-02-24T06:37:05.188Z,4.35
2018-02-24T06:39:34.223Z,4.32
2018-02-24T06:42:02.498Z,3.70
2018-02-24T06:44:30.754Z,3.50
2018-02-24T06:47:00.027Z,4.47
2018-02-24T06:49:28.292Z,3.78
2018-02-24T06:51:56.577Z,4.10
2018-02-24T06:54:24.865Z,4.85
2018-02-24T06:56:53.320Z,4.10
2018-02-24T06:59:21.580Z,4.00
2018-02-24T07:01:49.857Z,4.20
2018-02-24T07:04:18.125Z,4.35
2018-02-24T07:06:46.412Z,4.47
2018-02-24T07:09:14.686Z,4.20
2018-02-24T07:11:43.716Z,5.00
2018-02-24T07:14:12.000Z,4.47
2018-02-24T07:16:40.287Z,4.60
2018-02-24T07:19:08.571Z,4.32
2018-02-24T07:21:36.844Z,5.10
2018-02-24T07:24:05.881Z,4.78
2018-02-24T07:26:34.166Z,6.30
2018-02-24T07:29:02.430Z,3.87
2018-02-24T07:31:31.476Z,4.93
2018-02-24T07:33:59.748Z,4.30
2018-02-24T07:36:28.025Z,5.80
2018-02-24T07:39:01.429Z,4.45
2018-02-24T07:41:33.209Z,4.75
2018-02-24T07:44:01.482Z,5.03
2018-02-24T07:46:30.531Z,5.40
2018-02-24T07:48:58.798Z,6.32
2018-02-24T07:51:27.068Z,5.20
2018-02-24T07:53:55.344Z,5.57
2018-02-24T07:56:25.293Z,4.90
2018-02-24T07:58:53.572Z,5.15
2018-02-24T08:01:22.618Z,5.22
2018-02-24T08:03:51.791Z,4.60
2018-02-24T08:06:20.069Z,5.12
2018-02-24T08:08:49.092Z,5.00
2018-02-24T08:11:17.373Z,5.20
2018-02-24T08:13:45.636Z,5.45
2018-02-24T08:16:13.900Z,5.05
2018-02-24T08:18:42.169Z,4.60
2018-02-24T08:21:10.431Z,5.03
2018-02-24T08:23:38.701Z,5.20
2018-02-24T08:26:07.756Z,4.97
2018-02-24T08:28:37.944Z,4.60
2018-02-24T08:31:07.005Z,6.50
2018-02-24T08:33:35.268Z,7.03
2018-02-24T08:36:04.303Z,6.10
2018-02-24T08:38:32.563Z,6.12
2018-02-24T08:41:00.847Z,6.32
2018-02-24T08:43:29.118Z,6.65
2018-02-24T08:45:57.394Z,7.18
2018-02-24T08:48:26.433Z,8.38
2018-02-24T08:50:54.714Z,7.18
2018-02-24T08:53:22.982Z,9.95
2018-02-24T08:55:51.260Z,11.25
2018-02-24T08:58:20.301Z,8.25
2018-02-24T09:00:48.573Z,10.95
2018-02-24T09:03:16.850Z,10.20
2018-02-24T09:05:45.906Z,9.73
2018-02-24T09:08:14.170Z,12.20
2018-02-24T09:10:42.461Z,12.57
2018-02-24T09:13:10.720Z,11.90
2018-02-24T09:15:39.764Z,11.10
2018-02-24T09:18:08.037Z,13.13
2018-02-24T09:20:36.307Z,13.10
2018-02-24T09:23:05.342Z,12.68
2018-02-24T09:25:33.612Z,10.93
2018-02-24T09:28:01.886Z,14.65
2018-02-24T09:30:30.924Z,12.57
2018-02-24T09:32:59.200Z,14.80
2018-02-24T09:35:27.481Z,12.30
2018-02-24T09:37:55.762Z,16.25
2018-02-24T09:40:24.033Z,17.00
2018-02-24T09:42:53.075Z,14.27
2018-02-24T09:45:21.825Z,13.85
2018-02-24T09:47:50.095Z,15.15
2018-02-24T09:50:18.394Z,14.70
2018-02-24T09:52:46.667Z,11.63
2018-02-24T09:55:14.944Z,12.65
2018-02-24T09:57:43.234Z,10.77
2018-02-24T10:00:11.505Z,11.48
2018-02-24T10:02:39.779Z,12.23
2018-02-24T10:05:08.049Z,12.45
2018-02-24T10:07:37.080Z,11.27
2018-02-24T10:10:05.352Z,12.82
2018-02-24T10:12:34.393Z,13.00
2018-02-24T10:15:02.665Z,10.50
2018-02-24T10:17:30.929Z,10.10
2018-02-24T10:19:59.962Z,9.85
2018-02-24T10:22:28.242Z,18.90
2018-02-24T10:24:56.561Z,9.65
2018-02-24T10:27:24.797Z,9.60
2018-02-24T10:29:53.819Z,8.50
2018-02-24T10:32:22.117Z,9.80
2018-02-24T10:34:50.388Z,16.85
2018-02-24T10:37:18.655Z,11.75
2018-02-24T10:39:46.920Z,15.80
2018-02-24T10:42:15.200Z,11.35
2018-02-24T10:44:43.471Z,16.05
2018-02-24T10:47:11.734Z,17.62
2018-02-24T10:49:40.416Z,18.95
2018-02-24T10:52:09.453Z,10.00
2018-02-24T10:54:37.713Z,15.55
2018-02-24T10:57:06.744Z,9.52
2018-02-24T10:59:35.008Z,9.00
2018-02-24T11:02:04.036Z,9.60
2018-02-24T11:04:32.296Z,9.35
2018-02-24T11:07:01.328Z,9.15
2018-02-24T11:09:29.580Z,9.50
2018-02-24T11:11:57.849Z,19.15
2018-02-24T11:14:26.115Z,9.88
2018-02-24T11:16:54.383Z,9.05
2018-02-24T11:19:22.646Z,8.95
2018-02-24T11:21:51.677Z,9.05
2018-02-24T11:24:19.937Z,10.82
2018-02-24T11:26:48.982Z,9.05
2018-02-24T11:29:17.237Z,22.40
2018-02-24T11:31:46.289Z,21.02
2018-02-24T11:34:14.547Z,12.30
2018-02-24T11:36:42.829Z,10.23
2018-02-24T11:39:11.099Z,9.45
2018-02-24T11:41:39.370Z,8.98
2018-02-24T11:44:07.625Z,9.40
2018-02-24T11:46:36.675Z,10.00
2018-02-24T11:49:04.946Z,5.50
2018-02-24T11:51:33.245Z,5.57
2018-02-24T11:54:01.504Z,3.80
2018-02-24T11:56:29.789Z,4.15
2018-02-24T11:58:58.062Z,3.62
2018-02-24T12:01:26.320Z,3.37
2018-02-24T12:03:55.359Z,3.40
2018-02-24T12:06:23.617Z,3.50
2018-02-24T12:08:52.657Z,3.78
2018-02-24T12:11:21.690Z,3.75
2018-02-24T12:13:51.585Z,5.40
2018-02-24T12:16:19.849Z,3.10
2018-02-24T12:18:48.116Z,3.35
2018-02-24T12:21:16.405Z,6.70
2018-02-24T12:23:45.463Z,4.50
2018-02-24T12:26:13.729Z,6.75
2018-02-24T12:28:42.235Z,6.55
2018-02-24T12:31:14.113Z,3.42
2018-02-24T12:33:42.551Z,3.67
2018-02-24T12:36:11.588Z,3.97
2018-02-24T12:38:39.865Z,3.28
2018-02-24T12:41:08.892Z,2.78
2018-02-24T12:43:37.243Z,3.60
2018-02-24T12:46:05.457Z,3.35
2018-02-24T12:48:34.515Z,5.43
2018-02-24T12:51:02.787Z,3.20
2018-02-24T12:53:31.049Z,2.90
2018-02-24T12:55:59.348Z,3.87
2018-02-24T12:58:27.620Z,4.90
2018-02-24T13:00:55.887Z,7.55
2018-02-24T13:03:24.916Z,4.32
2018-02-24T13:05:53.181Z,5.95
2018-02-24T13:08:22.277Z,3.60
2018-02-24T13:10:50.539Z,3.75
2018-02-24T13:13:18.813Z,4.72
2018-02-24T13:15:47.088Z,4.12
2018-02-24T13:18:15.400Z,4.75
2018-02-24T13:20:43.656Z,3.83
2018-02-24T13:23:11.923Z,4.72
2018-02-24T13:25:40.958Z,7.55
2018-02-24T13:28:09.231Z,3.45
2018-02-24T13:30:38.264Z,3.00
2018-02-24T13:33:07.130Z,2.58
2018-02-24T13:35:36.154Z,2.80
2018-02-24T13:38:04.432Z,6.60
2018-02-24T13:40:33.464Z,5.30
2018-02-24T13:43:01.723Z,5.65
2018-02-24T13:45:30.755Z,9.05
2018-02-24T13:47:59.025Z,3.85
2018-02-24T13:50:28.112Z,7.28
2018-02-24T13:52:57.233Z,4.07
2018-02-24T13:55:26.252Z,4.68
2018-02-24T13:57:54.516Z,7.18
2018-02-24T14:00:23.544Z,7.07
2018-02-24T14:02:51.880Z,3.50
2018-02-24T14:05:20.117Z,2.95
2018-02-24T14:07:48.415Z,3.08
2018-02-24T14:10:16.668Z,4.22
2018-02-24T14:12:44.941Z,3.35
2018-02-24T14:15:13.211Z,4.22
2018-02-24T14:17:41.520Z,3.58
2018-02-24T14:20:09.784Z,4.85
2018-02-24T14:22:38.049Z,3.65
2018-02-24T14:25:06.331Z,7.75
2018-02-24T14:27:34.593Z,9.45
2018-02-24T14:30:03.665Z,8.75
2018-02-24T14:32:31.946Z,8.80
2018-02-24T14:35:00.227Z,8.43
2018-02-24T14:37:28.497Z,7.65
2018-02-24T14:39:56.795Z,8.43
2018-02-24T14:42:25.050Z,2.45
2018-02-24T14:44:54.084Z,3.30
2018-02-24T14:47:22.366Z,3.62
2018-02-24T14:49:50.644Z,6.43
2018-02-24T14:52:18.908Z,8.35
2018-02-24T14:54:47.958Z,8.10
2018-02-24T14:57:16.226Z,9.10
2018-02-24T14:59:44.497Z,3.80
2018-02-24T15:02:13.529Z,4.60
2018-02-24T15:04:41.813Z,4.37
2018-02-24T15:07:10.092Z,4.87
2018-02-24T15:09:38.380Z,4.82
2018-02-24T15:12:06.637Z,6.45
2018-02-24T15:14:34.939Z,6.55
2018-02-24T15:17:03.256Z,7.07
2018-02-24T15:19:32.264Z,5.32
2018-02-24T15:22:00.532Z,4.28
2018-02-24T15:24:29.569Z,3.78
2018-02-24T15:26:57.841Z,3.45
2018-02-24T15:29:26.110Z,3.15
2018-02-24T15:31:55.148Z,3.78
2018-02-24T15:34:23.413Z,4.15
2018-02-24T15:36:52.449Z,4.70
2018-02-24T15:39:20.721Z,3.72
2018-02-24T15:41:48.985Z,4.18
2018-02-24T15:44:18.384Z,4.55
2018-02-24T15:46:46.653Z,4.78
2018-02-24T15:49:14.916Z,6.70
2018-02-24T15:51:43.191Z,5.30
2018-02-24T15:54:12.233Z,5.18
2018-02-24T15:56:40.498Z,4.18
2018-02-24T15:59:08.779Z,5.65
2018-02-24T16:01:37.817Z,3.75
2018-02-24T16:04:06.094Z,4.68
2018-02-24T16:06:34.361Z,4.20
2018-02-24T16:09:03.411Z,4.05
2018-02-24T16:11:31.680Z,3.97
2018-02-24T16:13:59.954Z,4.70
2018-02-24T16:16:28.223Z,3.37
2018-02-24T16:18:57.277Z,4.97
2018-02-24T16:21:25.561Z,4.12
2018-02-24T16:23:53.870Z,4.53
2018-02-24T16:26:22.156Z,5.03
2018-02-24T16:28:50.448Z,4.40
2018-02-24T16:31:18.712Z,3.65
2018-02-24T16:33:58.253Z,4.18
2018-02-24T16:36:26.521Z,3.50
2018-02-24T16:38:59.541Z,4.32
2018-02-24T16:41:27.809Z,3.97
2018-02-24T16:43:56.080Z,4.10
2018-02-24T16:46:24.350Z,4.07
2018-02-24T16:48:52.620Z,4.20
2018-02-24T16:51:20.893Z,4.90
2018-02-24T16:53:49.168Z,3.60
2018-02-24T16:56:17.437Z,4.40
2018-02-24T16:58:46.480Z,4.30
2018-02-24T17:01:15.665Z,4.57
2018-02-24T17:03:43.951Z,4.85
2018-02-24T17:06:12.241Z,5.57
2018-02-24T17:08:41.333Z,5.03
2018-02-24T17:11:09.599Z,5.78
2018-02-24T17:13:38.641Z,5.30
2018-02-24T17:16:06.914Z,5.95
2018-02-24T17:18:35.176Z,5.40
2018-02-24T17:21:04.222Z,5.15
2018-02-24T17:23:32.496Z,5.40
2018-02-24T17:26:00.764Z,5.57
2018-02-24T17:28:29.792Z,4.78
2018-02-24T17:30:58.057Z,4.87
2018-02-24T17:33:27.085Z,5.30
2018-02-24T17:35:55.373Z,5.15
2018-02-24T17:38:23.718Z,5.35
2018-02-24T17:40:52.049Z,5.45
2018-02-24T17:43:20.948Z,5.50
2018-02-24T17:45:49.213Z,5.65
2018-02-24T17:48:19.175Z,4.55
2018-02-24T17:50:47.453Z,5.12
2018-02-24T17:53:15.721Z,4.97
2018-02-24T17:55:44.769Z,4.40
2018-02-24T17:58:13.024Z,4.78
2018-02-24T18:00:41.310Z,4.65
2018-02-24T18:03:10.332Z,4.50
2018-02-24T18:05:38.613Z,3.90
2018-02-24T18:08:06.887Z,4.32
2018-02-24T18:10:35.925Z,5.47
2018-02-24T18:13:04.189Z,4.62
2018-02-24T18:15:32.465Z,4.50
2018-02-24T18:18:01.489Z,4.35
2018-02-24T18:20:29.756Z,4.20
2018-02-24T18:23:00.474Z,3.87
2018-02-24T18:25:28.744Z,4.22
2018-02-24T18:27:57.014Z,4.10
2018-02-24T18:30:25.284Z,4.05
2018-02-24T18:32:53.553Z,4.10
2018-02-24T18:35:22.598Z,4.12
2018-02-24T18:37:50.865Z,4.03
2018-02-24T18:40:19.131Z,4.40
2018-02-24T18:42:48.174Z,3.95
2018-02-24T18:45:16.454Z,4.40
2018-02-24T18:47:44.722Z,4.40
2018-02-24T18:50:13.770Z,4.60
2018-02-24T18:52:42.041Z,4.20
2018-02-24T18:55:18.069Z,3.90
2018-02-24T18:57:46.348Z,4.65
2018-02-24T19:00:14.626Z,4.45
2018-02-24T19:02:42.913Z,5.20
2018-02-24T19:05:11.183Z,4.93
2018-02-24T19:07:39.458Z,5.00
2018-02-24T19:10:07.720Z,5.03
2018-02-24T19:12:36.769Z,4.90
2018-02-24T19:15:05.031Z,4.15
2018-02-24T19:17:33.315Z,4.80
2018-02-24T19:20:01.597Z,4.70
2018-02-24T19:22:29.881Z,5.37
2018-02-24T19:24:59.847Z,4.70
2018-02-24T19:27:28.846Z,4.85
2018-02-24T19:29:57.148Z,5.35
2018-02-24T19:32:25.393Z,5.20
2018-02-24T19:34:53.653Z,6.57
2018-02-24T19:37:21.957Z,6.20
2018-02-24T19:39:50.998Z,4.65
2018-02-24T19:42:19.265Z,4.93
2018-02-24T19:44:47.555Z,5.30
2018-02-24T19:47:16.613Z,5.87
2018-02-24T19:49:44.894Z,5.43
2018-02-24T19:52:13.181Z,5.60
2018-02-24T19:54:41.454Z,6.25
2018-02-24T19:57:10.616Z,6.28
2018-02-24T19:59:39.653Z,4.97
2018-02-24T20:02:07.929Z,5.22
2018-02-24T20:04:36.966Z,4.97
2018-02-24T20:07:05.233Z,6.00
2018-02-24T20:09:33.509Z,5.60
2018-02-24T20:12:02.541Z,5.90
2018-02-24T20:14:30.845Z,6.50
2018-02-24T20:16:59.116Z,5.70
2018-02-24T20:19:27.405Z,5.53
2018-02-24T20:21:55.675Z,5.47
2018-02-24T20:24:23.948Z,4.87
2018-02-24T20:26:52.986Z,4.97
2018-02-24T20:29:21.274Z,5.90
2018-02-24T20:31:49.541Z,5.35
2018-02-24T20:34:18.568Z,5.60
2018-02-24T20:36:46.838Z,5.35
2018-02-24T20:39:15.118Z,6.00
2018-02-24T20:41:44.150Z,5.78
2018-02-24T20:44:12.415Z,6.53
2018-02-24T20:46:40.691Z,5.78
2018-02-24T20:49:08.965Z,6.15
2018-02-24T20:51:37.232Z,6.28
2018-02-24T20:54:05.504Z,5.82
2018-02-24T20:56:33.769Z,6.90
2018-02-24T20:59:02.049Z,5.60
2018-02-24T21:01:30.316Z,6.60
2018-02-24T21:03:58.594Z,6.45
2018-02-24T21:06:26.857Z,5.53
2018-02-24T21:08:55.124Z,5.90
2018-02-24T21:11:23.389Z,6.32
2018-02-24T21:13:51.665Z,6.00
2018-02-24T21:16:20.714Z,6.87
2018-02-24T21:18:48.989Z,6.53
2018-02-24T21:21:17.254Z,6.65
2018-02-24T21:23:46.307Z,7.07
2018-02-24T21:26:14.581Z,5.78
2018-02-24T21:28:42.849Z,6.68
2018-02-24T21:31:11.119Z,7.32
2018-02-24T21:33:40.178Z,6.50
2018-02-24T21:36:08.453Z,7.12
2018-02-24T21:38:36.727Z,6.65
2018-02-24T21:41:05.004Z,7.43
2018-02-24T21:43:33.270Z,8.45
2018-02-24T21:46:02.416Z,6.95
2018-02-24T21:48:30.691Z,7.20
2018-02-24T21:50:58.973Z,8.35
2018-02-24T21:53:28.015Z,6.55
2018-02-24T21:55:56.290Z,8.23
2018-02-24T21:58:24.548Z,7.37
2018-02-24T22:00:53.596Z,7.57
2018-02-24T22:03:21.857Z,7.12
2018-02-24T22:05:50.140Z,6.97
2018-02-24T22:08:18.404Z,7.43
2018-02-24T22:10:47.439Z,8.52
2018-02-24T22:13:15.709Z,6.90
2018-02-24T22:15:44.744Z,7.53
2018-02-24T22:18:13.004Z,6.93
2018-02-24T22:20:42.057Z,7.70
2018-02-24T22:23:10.353Z,7.35
2018-02-24T22:25:38.628Z,8.25
2018-02-24T22:28:06.891Z,7.80
2018-02-24T22:30:35.168Z,9.05
2018-02-24T22:33:04.214Z,7.95
2018-02-24T22:35:32.484Z,7.70
2018-02-24T22:38:00.751Z,8.70
2018-02-24T22:40:29.796Z,7.80
2018-02-24T22:42:58.066Z,8.77
2018-02-24T22:45:26.343Z,7.85
2018-02-24T22:48:00.235Z,7.03
2018-02-24T22:50:28.522Z,7.75
2018-02-24T22:52:56.793Z,7.32
2018-02-24T22:55:25.062Z,7.12
2018-02-24T22:57:53.346Z,7.55
2018-02-24T23:00:21.603Z,7.87
2018-02-24T23:02:49.879Z,8.10
2018-02-24T23:05:18.905Z,8.18
2018-02-24T23:07:47.178Z,7.97
2018-02-24T23:10:15.435Z,8.20
2018-02-24T23:12:43.722Z,7.43
2018-02-24T23:15:11.992Z,7.87
2018-02-24T23:17:40.272Z,8.75
2018-02-24T23:20:08.534Z,8.45
2018-02-24T23:22:36.818Z,7.70
2018-02-24T23:25:05.077Z,7.55
2018-02-24T23:27:34.121Z,7.80
2018-02-24T23:30:02.391Z,8.88
2018-02-24T23:32:30.661Z,7.00
2018-02-24T23:34:59.726Z,7.72
2018-02-24T23:37:28.009Z,7.03
2018-02-24T23:39:56.277Z,7.30
2018-02-24T23:42:24.560Z,7.47
2018-02-24T23:44:52.837Z,6.85
2018-02-24T23:47:21.880Z,7.45
2018-02-24T23:49:50.153Z,7.03
2018-02-24T23:52:18.440Z,6.62
2018-02-24T23:54:46.702Z,7.50
2018-02-24T23:57:15.754Z,8.75
2018-02-24T23:59:44.026Z,8.02
